X  CloseMetar Aviation Weather Data     KBWI Baltimore / Washington International Thurgood Marshall

Temperature

25°F Temperature

7°F Dewpoint

46% Humidity



Wind

 3 MPH

 5 KM/H

 1 M/S

 3 KTS



350°
Due North
Current Conditions

Clear Clear
Pressure 1030.82 (hPa) - 30.44 (in)
Visibility 10 (mi) - 16.1 (km)
Airport
Airport-code KBWI

Location Baltimore / Washington International Thurgood Marshall 6 (mi)

Metar:
KBWI 210754Z 35003KT 10SM CLR M04/M14 A3044 RMK AO2 SLP310 T10441144

Time: 21-01-2020 02:54